METAR Data
IDs: Format: Raw Decoded Include TAF

Data at: 1027 UTC 26 Sep 2018

KTOL 261006Z 27007KT 10SM BKN018 BKN024 BKN080 20/18 A2987 RMK AO2 T02000178
KTOL 260952Z 27009KT 10SM FEW016 SCT075 20/18 A2986 RMK AO2 SLP107 T02000178
KTOL 260852Z 27011KT 10SM SCT012 SCT035 21/18 A2985 RMK AO2 SLP104 60000 T02060183 55000
KTOL 260805Z 26009KT 10SM FEW019 SCT025 SCT110 22/19 A2983 RMK AO2 T02170194
KTOL 260752Z 25013KT 10SM FEW008 BKN019 BKN025 22/19 A2984 RMK AO2 RAE43 SLP099 P0000 T02220194
KTOL 260743Z 26007KT 10SM FEW008 BKN024 22/20 A2984 RMK AO2 RAE43 P0000 T02170200
KTOL 260726Z 23007KT 10SM -RA SCT009 BKN055 BKN110 22/21 A2984 RMK AO2 P0000 T02220206
KTOL 260652Z 21006KT 10SM -RA BKN013 OVC019 22/21 A2984 RMK AO2 RAB42 SLP101 P0000 T02220206
KTOL 260639Z 21007KT 10SM FEW011 BKN017 OVC120 22/21 A2984 RMK AO2 T02220206
KTOL 260552Z 21008KT 10SM FEW024 BKN120 22/21 A2985 RMK AO2 LTG DSNT S RAB14E37 SLP104 P0000 60000 T02220206 10239 20222 58009
KTOL 260521Z 20007KT 10SM -RA FEW007 BKN090 OVC120 23/21 A2985 RMK AO2 RAB14 P0000 T02280211
KTOL 260509Z 21007KT 10SM SCT027 BKN090 OVC120 23/21 A2985 RMK AO2 T02280206
KTOL 260452Z 21008KT 10SM BKN027 BKN120 23/21 A2986 RMK AO2 RAB07E32 SLP108 P0000 T02280211 402500200
KTOL 260352Z 21009KT 10SM FEW033 SCT110 23/21 A2987 RMK AO2 RAE02 SLP112 P0000 T02330211
KTOL 260252Z 21007KT 10SM -RA BKN041 BKN090 BKN120 23/21 A2988 RMK AO2 RAB31 SLP113 P0000 60000 T02330206 50006
KTOL 260152Z 23008KT 10SM BKN033 OVC041 24/21 A2988 RMK AO2 SLP114 T02390206
KTOL 260125Z 22012G18KT 10SM SCT029 BKN040 OVC060 24/21 A2986 RMK AO2 T02390206
KTOL 260057Z 22013G23KT 10SM BKN020 BKN030 OVC050 24/21 A2986 RMK AO2 LTG DSNT N AND NE T02390206
KTOL 260052Z 21014G20KT 10SM VCTS SCT020 BKN030 OVC060 24/21 A2986 RMK AO2 LTG DSNT N AND NE RAE2357B15E46 SLP107 P0000 T02390206
KTOL 260048Z 22014G20KT 10SM VCTS SCT020 BKN030 OVC060 24/21 A2986 RMK AO2 LTG DSNT N RAE2357B15E46 P0000
KTOL 252352Z 19013G21KT 10SM -RA SCT022 BKN031 OVC065 23/21 A2984 RMK AO2 LTG DSNT N AND W RAE2258B24 SLP101 P0001 60005 T02330206 10250 20233 56009
KTOL 252350Z 19013G21KT 10SM -RA SCT022 BKN029 OVC060 23/21 A2984 RMK AO2 LTG DSNT N AND W RAE2258B24 P0001
KTOL 252252Z 16003KT 7SM -RA FEW019 BKN050 OVC060 24/22 A2985 RMK AO2 RAB05E19B31 SLP105 P0001 T02390217
KTOL 252241Z 16004KT 7SM -RA FEW016 BKN060 OVC075 24/22 A2986 RMK AO2 RAB05E19B31 P0000 T02390217
KTOL 252230Z 19005KT 10SM BKN019 BKN029 OVC070 24/22 A2987 RMK AO2 RAB05E19 P0000 T02390217
KTOL 252152Z 20007KT 10SM FEW019 SCT050 BKN080 25/21 A2987 RMK AO2 SLP110 T02500211
KTOL 252135Z 20008KT 10SM SCT019 BKN034 OVC120 25/22 A2987 RMK AO2 T02500217
KTOL 252122Z 20007KT 10SM FEW014 SCT019 BKN029 25/22 A2988 RMK AO2 T02500217
KTOL 252116Z 21009KT 10SM SCT012 BKN019 OVC120 25/22 A2987 RMK AO2 T02500217
KTOL 252052Z 21003KT 10SM FEW017 25/22 A2985 RMK AO2 RAE1959 SLP105 P0000 60003 T02500217 58033
KTOL 252014Z 21004KT 10SM FEW038 24/22 A2989 RMK AO2 RAE1959 P0000 T02390217
KTOL 251952Z 22009KT 10SM -RA SCT013 BKN039 OVC075 24/22 A2991 RMK AO2 SLP122 P0001 T02390217
KTOL 251852Z 21005KT 5SM RA BKN016 BKN027 OVC040 24/21 A2993 RMK AO2 LTG DSNT S RAB18 SLP131 P0002 T02390211
KTOL 251752Z 21006KT 10SM OVC019 24/21 A2995 RMK AO2 SLP139 60001 T02440206 10244 20217 58005
KTOL 251700Z 21010KT 10SM OVC015 24/21 A2996 RMK AO2 T02390206
KTOL 251652Z 21008KT 10SM OVC014 24/21 A2996 RMK AO2 SLP142 T02390206
KTOL 251552Z 21005KT 10SM BKN010 OVC016 23/21 A2997 RMK AO2 SLP144 T02280206
KTOL 251507Z 19005G15KT 10SM BKN010 BKN015 OVC030 23/21 A2996 RMK AO2 T02280206
KTOL 251452Z 19007KT 10SM BKN009 BKN032 23/21 A2997 RMK AO2 SLP144 60001 T02280206 58001
KTOL 251352Z 19007KT 10SM OVC006 22/21 A2997 RMK AO2 RAE21 SLP146 P0001 T02170206
KTOL 251252Z 20006KT 4SM -RA BR BKN007 BKN016 OVC100 22/20 A2997 RMK AO2 LTG DSNT SE RAB40 SLP147 P0000 T02170200
KTOL 251249Z 19006KT 4SM VCTS -RA BR SCT007 BKN012 OVC100 22/20 A2997 RMK AO2 LTG DSNT SE RAB40 P0000
KTOL 251242Z 17008KT 4SM VCTS -RA BR BKN007 OVC012 22/20 A2997 RMK AO2 LTG DSNT SE RAB40 P0000 T02170200
KTOL 251152Z 18006KT 5SM BR OVC009 22/20 A2997 RMK AO2 LTG DSNT S AND SW SLP145 60007 70042 T02170200 10217 20200 50001
KTOL 251052Z 19006KT 8SM OVC006 22/20 A2998 RMK AO2 RAE0953B16E38 SLP149 P0001 T02170200
KTOL 250952Z 20006KT 9SM -RA OVC007 21/20 A2997 RMK AO2 RAB37 SLP145 P0000 T02110200
KTOL 250852Z 19007KT 10SM OVC005 21/19 A2997 RMK AO2 SLP144 60006 T02110194 56007
KTOL 250752Z 19009KT 10SM BKN005 OVC010 21/19 A2997 RMK AO2 RAE10 SLP144 P0000 T02060189
KTOL 250652Z 18006KT 9SM -RA OVC006 20/19 A2998 RMK AO2 SLP148 P0006 T02000189
KTOL 250552Z VRB05KT 9SM -RA BKN006 OVC010 20/19 A2999 RMK AO2 RAB10 SLP152 P0002 60009 T02000189 10200 20194 58013
KTOL 250452Z 17006KT 7SM BKN006 OVC014 20/19 A3000 RMK AO2 RAB23E35 SLP157 P0000 T02000189 402000100
KTOL 250352Z 13004KT 5SM BR BKN007 OVC011 20/19 A3001 RMK AO2 RAE43 SLP161 P0001 T02000189
KTOL 250333Z 14004KT 3SM -RA BR BKN006 OVC012 20/19 A3002 RMK AO2 P0000 T02000189
KTOL 250308Z 14004KT 10SM -RA SCT006 OVC013 20/19 A3002 RMK AO2 P0000 T02000189
KTOL 250252Z VRB05KT 10SM -RA BKN006 BKN010 OVC026 20/18 A3002 RMK AO2 SLP165 P0001 60006 T02000183 58002
KTOL 250152Z 12005KT 5SM -RA BR BKN004 OVC049 19/18 A3003 RMK AO2 RAB07 SLP167 P0005 T01940183
KTOL 250052Z VRB04KT 6SM BR OVC004 19/18 A3003 RMK AO2 RAB2354E08B26E34 SLP169 P0000 T01940183
KTOL 250047Z 11005KT 6SM BR OVC004 19/18 A3003 RMK AO2 RAB2354E08B26E34 P0000
KTOL 242352Z VRB04KT 10SM BKN005 OVC009 20/18 A3004 RMK AO2 RAB21E44 SLP172 P0000 60026 T02000183 10200 20178 58007
KTOL 242252Z 12004KT 10SM BKN005 BKN029 OVC038 20/18 A3005 RMK AO2 RAE32 SLP176 P0021 T02000183